Tiempo atmosférico en la estación meteorológica de Jerez De Los Caballeros, Badajoz (381 m.)



Fecha
DESCASC
Temp. máxima en grados centígrados (hora)
DESCASC
Temp. mínima en grados centígrados (hora)
DESCASC
Temp. media en grados centígrados
DESCASC
Racha de viento máxima en m/sg (hora)
DESCASC
Velocidad máxima media en intervalos de 10 minutos(hora)
DESCASC
Precipitaciones diarias en mm
DESCASC
Precipitaciones de 00:00 a 06:00 en mm
DESCASC
Precipitaciones de 06:00 a 12:00 en mm
DESCASC
Precipitaciones de 12:00 a 18:00 en mm
DESCASC
Precipitaciones de 18:00 a 24:00 en mm
DESCASC
28-02-2021 18.2 (14:30) 7 (08:10) 12.6 6.67 (13:30) 5.28 (11:00) 0 0 0 0 0
27-02-2021 19.7 (16:10) 5.8 (07:10) 12.8 6.11 (17:10) 4.17 (17:10) 0 0 0 0 0
26-02-2021 17.1 (15:10) 10.2 (08:50) 13.7 11.39 (14:30) 8.61 (14:30) 2.2 0 2.2 0 0
25-02-2021 16.6 (17:00) 8.3 (00:00) 12.5 6.39 (03:00) 5 (03:00) 0 0 0 0 0
24-02-2021 18.6 (14:50) 6.7 (00:00) 12.7 10 (12:20) 7.5 (13:10) 0 0 0 0 0
23-02-2021 17.7 (16:20) 3.9 (00:00) 10.8 10 (14:00) 7.78 (14:00) 0 0 0 0 0
22-02-2021 15.2 (17:30) 1.5 (00:00) 8.3 8.89 (14:30) 6.11 (14:50) 0 0 0 0 0
21-02-2021 15.2 (01:50) 6.1 (00:00) 10.6 -- (--) -- (--) 14.2 3.4 10.8 0 0
20-02-2021 17.1 (15:10) 10.6 (00:00) 13.9 14.72 (15:20) 8.06 (15:20) 0 0 0 0 0
19-02-2021 17.6 (14:10) 3.6 (00:00) 10.6 10 (16:10) 7.5 (14:30) 0 0 0 0 0
18-02-2021 19.4 (16:30) 4.7 (00:00) 12 7.22 (15:10) 4.72 (17:10) 0 0 0 0 0
17-02-2021 21.3 (16:40) 4.8 (00:00) 13 6.67 (17:10) 5 (16:50) 0 0 0 0 0
16-02-2021 19.6 (15:30) 4.4 (00:00) 12 6.67 (13:30) 4.44 (13:20) 0 0 0 0 0
15-02-2021 20.5 (15:30) 7.9 (00:00) 14.2 8.61 (11:20) 6.11 (11:50) 0 0 0 0 0
14-02-2021 20.5 (14:50) 4.6 (00:00) 12.5 6.11 (15:30) 4.72 (17:20) 0 0 0 0 0
13-02-2021 19 (16:30) 4 (00:00) 11.5 4.72 (16:40) 3.06 (18:30) 0 0 0 0 0
12-02-2021 16.7 (16:50) 8.7 (00:00) 12.7 15 (05:10) 9.72 (05:10) 1.4 1.4 0 0 0
11-02-2021 15.6 (14:10) 11.9 (00:00) 13.8 11.94 (15:50) 8.61 (15:50) 0.4 0.2 0.2 0 0
10-02-2021 14.3 (17:40) 10.5 (00:00) 12.4 15.83 (07:00) 11.67 (06:50) 11 5 4.4 0.4 1.2
09-02-2021 11.8 (11:20) 9.3 (00:00) 10.6 21.67 (11:20) 15 (11:20) 16.8 0.2 2 13.8 0.8
08-02-2021 14 (15:30) 8.7 (00:00) 11.3 20.83 (04:20) 15 (15:00) 11 10.8 0.2 0 0
07-02-2021 10.1 (15:50) 5.7 (00:00) 7.9 13.33 (15:30) 9.72 (16:00) 0.4 0 0 0 0.4
06-02-2021 10.7 (12:20) 8.2 (00:00) 9.4 9.17 (16:00) 6.67 (07:30) 3.8 0 0.6 2.2 1
05-02-2021 11.5 (17:40) 9.1 (00:00) 10.3 11.39 (13:50) 9.17 (13:50) 23.6 3.6 10.8 4.8 4.4
04-02-2021 13 (11:30) 10.1 (00:00) 11.6 10.28 (12:00) 7.5 (12:00) 16 2.2 1.4 11.6 0.8
03-02-2021 14.7 (16:40) 10.6 (00:00) 12.7 9.17 (15:30) 6.39 (15:40) 2.2 0 0 0 2.2
02-02-2021 14.6 (15:30) 11.2 (00:00) 12.9 8.89 (16:10) 6.39 (16:10) 1 0.4 0.6 0 0
01-02-2021 15.1 (14:50) 11.1 (00:00) 13.1 12.5 (02:30) 8.61 (02:30) 0.6 0.6 0 0 0
31-01-2021 13.6 (17:50) 9.2 (00:00) 11.4 13.33 (14:10) 10 (15:30) 3 0 0 1.2 1.8
30-01-2021 15.2 (16:10) 9.5 (00:00) 12.3 18.89 (17:40) 12.78 (15:30) 0.8 0.2 0.6 0 0

Gráficas

Temp. máximas Temp. mínimas Temp. medias Precipitaciones Rachas de viento máximas Velocidades máximas media en intervalos de 10 minutos

Datos horarios

Fecha y hora oficial Temperatura (ºC) Velocidad del viento (km/h) Dirección del viento Racha (km/h) Dirección de racha Precipitación (mm) Presión (hPa) Tendencia (hPa) Humedad (%)
2021-02-28 23:00:00 11.2 8 Nordeste 13 Nordeste 0 972.5 -- 75
2021-02-28 22:00:00 11.9 8 Nordeste 13 Nordeste 0 972.2 -- 72
2021-02-28 21:00:00 12.7 8 Este 10 Este 0 972.1 -- 68
2021-02-28 20:00:00 13.6 6 Este 10 Este 0 971.9 -- 63
2021-02-28 19:00:00 14.3 8 Nordeste 18 Este 0 971.7 -- 65
2021-02-28 18:00:00 15.5 14 Este 23 Este 0 971.5 -- 62
2021-02-28 17:00:00 16.5 9 Este 17 Nordeste 0 971.7 -- 56
2021-02-28 16:00:00 16.4 11 Nordeste 16 Nordeste 0 971.7 -- 54
2021-02-28 15:00:00 17.5 9 Sudeste 17 Sudeste 0 972.1 -- 49
2021-02-28 14:00:00 16.5 5 Este 24 Este 0 972.9 -- 54
2021-02-28 13:00:00 16.4 11 Sudeste 22 Este 0 973.6 -- 56
2021-02-28 12:00:00 14.3 13 Nordeste 22 Nordeste 0 974.1 -- 65
2021-02-28 11:00:00 12.6 19 Nordeste 23 Este 0 974.2 -- 70
2021-02-28 10:00:00 10.7 11 Este 15 Nordeste 0 974.4 -- 83
2021-02-28 09:00:00 7.7 10 Este 15 Este 0 974.1 -- 91
2021-02-28 08:00:00 7.1 8 Este 16 Este 0 973.7 -- 91
2021-02-28 07:00:00 7.2 8 Nordeste 11 Este 0 973.7 -- 89
2021-02-28 06:00:00 8.5 4 Norte 8 Este 0 973.8 -- 88
2021-02-28 05:00:00 9.4 4 Nordeste 10 Nordeste 0 973.7 -- 87
2021-02-28 04:00:00 9.2 6 Este 8 Nordeste 0 973.9 -- 85
2021-02-28 03:00:00 9.8 4 Sudoeste 9 Este 0 974.4 -- 83
2021-02-28 02:00:00 10.7 4 Este 11 Este 0 974.7 -- 80
2021-02-28 01:00:00 11.5 5 Sudeste 7 Este 0 974.9 -- 76
2021-02-28 00:00:00 11.7 3 Sudeste 9 Este 0 975 -- 75
2021-02-27 23:00:00 12.8 7 Este 11 Este 0 975.2 -- 70
2021-02-27 22:00:00 13.2 7 Sudeste 13 Nordeste 0 975 -- 67
2021-02-27 21:00:00 13.5 10 Nordeste 15 Este 0 975.1 -- 68
2021-02-27 20:00:00 14.5 6 Este 13 Nordeste 0 975 -- 66
2021-02-27 19:00:00 15.4 10 Nordeste 20 Nordeste 0 975 -- 66
2021-02-27 18:00:00 16.6 12 Este 22 Nordeste 0 974.8 -- 59
2021-02-27 17:00:00 17.6 9 Nordeste 15 Este 0 975.1 -- 56
2021-02-27 16:00:00 19.4 4 Sur 17 Este 0 975.6 -- 51
2021-02-27 15:00:00 18 8 Sudeste -- -- -- 976.3 -- 56
2021-02-27 14:00:00 16.8 7 Este 17 Este 0 977.2 -- 59
2021-02-27 13:00:00 15.9 10 Este 18 Este 0 978.1 -- 64
2021-02-27 12:00:00 14.6 7 Este 13 Este 0 978.5 -- 75
2021-02-27 11:00:00 12 8 Sudeste 12 Sudeste 0 978.7 -- 87
2021-02-27 10:00:00 9 6 Este 14 Este 0 978.8 -- 94
2021-02-27 09:00:00 7.3 9 Este 17 Nordeste 0 978.8 -- 94
2021-02-27 08:00:00 5.9 8 Este 12 Este 0 978.4 -- 94
2021-02-27 07:00:00 5.9 10 Este 13 Este 0 978.5 -- 93
2021-02-27 06:00:00 6.9 4 Nordeste 12 Este 0 978.5 -- 94
2021-02-27 05:00:00 6.6 5 Este 9 Este 0 978.6 -- 92
2021-02-27 04:00:00 7.8 6 Este 9 Sudeste 0 978.8 -- 92
2021-02-27 03:00:00 8.9 8 Este 9 Este 0 979.2 -- 92
2021-02-27 02:00:00 9.1 7 Este 9 Este 0 979.6 -- 90
2021-02-27 01:00:00 10.3 5 Sudoeste 6 Este 0 979.9 -- 89
2021-02-27 00:00:00 11.4 4 Este 5 Nordeste 0 980.3 -- 87
2021-02-26 23:00:00 11.7 4 Nordeste 6 Sur 0 980.5 -- 85
2021-02-26 22:00:00 12.2 6 Sudoeste 13 Sudoeste 0 980.4 -- 85
2021-02-26 21:00:00 12.9 9 Sudoeste 13 Sudoeste 0 980.2 -- 82
2021-02-26 20:00:00 13.7 8 Sudoeste 19 Oeste 0 980 -- 79
2021-02-26 19:00:00 15.5 5 Nordeste 12 Nordeste 0 979.8 -- 61
2021-02-26 18:00:00 16.2 9 Este 18 Este 0 979.2 -- 58
2021-02-26 17:00:00 16.6 15 Nordeste 27 Nordeste 0 979.1 -- 53
2021-02-26 16:00:00 16.7 23 Nordeste 32 Nordeste 0 979.1 -- 53
2021-02-26 15:00:00 17 24 Este 41 Nordeste 0 979.5 -- 54
2021-02-26 14:00:00 16.3 27 Nordeste 39 Nordeste 0 980 -- 58
2021-02-26 13:00:00 15.2 22 Nordeste 27 Nordeste 0 980.8 -- 68
2021-02-26 12:00:00 12.9 15 Este 21 Nordeste 0 981.4 -- 79
2021-02-26 11:00:00 11.2 6 Este 9 Este 0 981.1 -- 90
2021-02-26 10:00:00 10.4 4 Noroeste 10 Este 0 980.8 -- 91
2021-02-26 09:00:00 10.3 5 Nordeste 10 Nordeste 0.6 980 -- 87
2021-02-26 08:00:00 10.4 2 Sudoeste 12 Este 0.4 979.8 -- 86
2021-02-26 07:00:00 11 6 Norte 15 Norte 1.2 979.5 -- 81
2021-02-26 06:00:00 11.1 11 Este 17 Nordeste 0 979.3 -- 78
2021-02-26 05:00:00 11.4 14 Este 25 Nordeste 0 978.8 -- 76
2021-02-26 04:00:00 11.1 14 Nordeste 20 Nordeste 0 978.9 -- 78
2021-02-26 03:00:00 10.8 9 Este 15 Nordeste 0 979.5 -- 81
2021-02-26 02:00:00 10.9 6 Nordeste 11 Nordeste 0 979.8 -- 85
2021-02-26 01:00:00 11.6 6 Este 9 Este 0 980.1 -- 81
2021-02-26 00:00:00 12 4 Nordeste 11 Este 0 980.2 -- 79
2021-02-25 23:00:00 12.3 5 Nordeste 9 Nordeste 0 980.2 -- 78
2021-02-25 22:00:00 12.8 7 Nordeste 14 Nordeste 0 980.2 -- 76
2021-02-25 21:00:00 13.1 11 Nordeste 18 Nordeste 0 979.8 -- 75
2021-02-25 20:00:00 14 10 Nordeste 13 Este 0 979.5 -- 68
2021-02-25 19:00:00 14.5 11 Este 14 Este 0 979.1 -- 67
2021-02-25 18:00:00 15.5 10 Sudeste 14 Sudeste 0 979.1 -- 64
2021-02-25 17:00:00 16.6 4 Sudoeste 21 Sudeste 0 979.1 -- 60
2021-02-25 16:00:00 16.1 9 Sudeste 19 Sur 0 979.4 -- 61
2021-02-25 15:00:00 15.6 11 Sur 20 Sur 0 979.8 -- 61
2021-02-25 14:00:00 15.6 13 Sudeste 23 Sudeste 0 980.4 -- 62
2021-02-25 13:00:00 14.7 10 Este 20 Sudeste 0 981.1 -- 68
2021-02-25 12:00:00 13.2 7 Este 16 Este 0 981.5 -- 72
2021-02-25 11:00:00 12.5 10 Este 17 Este 0 981.7 -- 73
2021-02-25 10:00:00 10.3 13 Este 22 Nordeste 0 981.5 -- 79
2021-02-25 09:00:00 9.5 9 Este 16 Este 0 981.1 -- 81
2021-02-25 08:00:00 9.5 10 Este 15 Este 0 980.5 -- 79
2021-02-25 07:00:00 8.7 7 Este 10 Nordeste 0 980.4 -- 84
2021-02-25 06:00:00 8.6 3 Oeste 7 Este 0 980.4 -- 82
2021-02-25 05:00:00 9.4 4 Sudeste 10 Nordeste 0 980.2 -- 78
2021-02-25 04:00:00 9.8 6 Este 18 Nordeste 0 980.1 -- 76
2021-02-25 03:00:00 10.1 18 Nordeste 23 Nordeste 0 980.1 -- 75
2021-02-25 02:00:00 10.2 13 Este 19 Este 0 980.6 -- 76
2021-02-25 01:00:00 11.2 7 Este 19 Nordeste 0 981.2 -- 73
2021-02-25 00:00:00 11.6 12 Nordeste 19 Nordeste 0 981.3 -- 71
2021-02-24 23:00:00 12.3 13 Nordeste 22 Sudeste 0 981.2 -- 69
2021-02-24 22:00:00 12.6 12 Este 31 Este 0 981.1 -- 69
2021-02-24 21:00:00 13.2 17 Este 26 Sudeste 0 981 -- 68
2021-02-24 20:00:00 13.8 17 Sudeste 22 Sudeste 0 980.9 -- 67
2021-02-24 19:00:00 15.4 14 Sudeste 24 Sudeste 0 980.9 -- 62
2021-02-24 18:00:00 16.5 16 Sudeste 28 Sudeste 0 980.7 -- 57
2021-02-24 17:00:00 16.9 17 Sudeste 29 Sudeste 0 980.9 -- 54
2021-02-24 16:00:00 18.2 14 Sudeste 33 Sudeste 0 981.4 -- 50
2021-02-24 15:00:00 18.6 13 Sudeste 29 Este 0 982 -- 51
2021-02-24 14:00:00 17.4 21 Este 36 Este 0 982 -- 56
2021-02-24 13:00:00 16.4 24 Este 36 Este 0 982.9 -- 57
2021-02-24 12:00:00 15.4 26 Este 36 Sudeste 0 983.7 -- 59
2021-02-24 11:00:00 13.2 14 Nordeste 24 Nordeste 0 984 -- 68
2021-02-24 10:00:00 11.7 17 Nordeste 27 Nordeste 0 984 -- 70
2021-02-24 09:00:00 10.6 20 Nordeste 32 Este 0 984 -- 72
2021-02-24 08:00:00 8.4 22 Nordeste 31 Nordeste 0 983.8 -- 79
2021-02-24 07:00:00 8.1 15 Este 26 Nordeste 0 983.9 -0.8 79
2021-02-24 06:00:00 8.2 12 Este 21 Este 0 984.2 -1.3 77
2021-02-24 05:00:00 8.4 17 Este 27 Nordeste 0 984.6 -- 75
2021-02-24 04:00:00 7.6 19 Este 27 Nordeste 0 984.7 -- 75
2021-02-24 03:00:00 7.3 16 Este 28 Nordeste 0 985.5 -- 72
2021-02-24 02:00:00 7.2 10 Este 18 Nordeste 0 985.7 -0.2 73
2021-02-24 01:00:00 7.8 12 Este 18 Nordeste 0 986 -- 70
2021-02-24 00:00:00 8.4 8 Este 19 Este 0 986.2 -- 69
2021-02-23 23:00:00 9.5 13 Este 17 Este 0 985.9 -- 63
2021-02-23 22:00:00 10.3 7 Nordeste 9 Sudeste 0 985.8 -- 57
2021-02-23 21:00:00 11.6 7 Este 12 Sudeste 0 985.8 1.4 53
2021-02-23 20:00:00 12.8 9 Sudeste 18 Sudeste 0 985.3 -- 50
2021-02-23 19:00:00 14.5 11 Este 21 Sudeste 0 984.8 -- 44
2021-02-23 18:00:00 16.2 13 Sudeste 23 Sudeste 0 984.4 -- 41
2021-02-23 17:00:00 17 15 Sudeste 26 Sudeste 0 984.1 -- 35
2021-02-23 16:00:00 17.3 10 Sudeste 27 Nordeste 0 984.2 -- 32
2021-02-23 15:00:00 16.3 20 Nordeste 34 Nordeste 0 984.4 -- 40
2021-02-23 14:00:00 15.2 28 Nordeste 36 Nordeste 0 984.9 -- 42
2021-02-23 13:00:00 14.6 20 Nordeste 36 Nordeste 0 985.7 -- 48
2021-02-23 12:00:00 13.3 24 Nordeste 31 Nordeste 0 985.6 -- 60
2021-02-23 11:00:00 11.9 16 Este 21 Este 0 985.9 -- 67
2021-02-23 10:00:00 8.2 6 Este 11 Este 0 985.3 -- 85
2021-02-23 09:00:00 4.8 4 Sudeste 7 Sudoeste 0 984.6 -- 90
2021-02-23 08:00:00 4 4 Sur 12 Este 0 983.7 -- 89
2021-02-23 07:00:00 4.1 8 Este 19 Este 0 982.9 -- 90
2021-02-23 06:00:00 5.5 10 Este 18 Este 0 982.4 -- 88
2021-02-23 05:00:00 5.2 14 Este 19 Este 0 982.1 -- 92
2021-02-23 04:00:00 4.6 5 Este 13 Este 0 982.3 -- 91
2021-02-23 03:00:00 5.5 4 Sudeste 6 Este 0 982.5 -- 89
2021-02-23 02:00:00 6.1 3 Sudoeste 6 Este 0 982.2 -- 87
2021-02-23 01:00:00 6.5 4 Este 7 Sudoeste 0 981.7 -- 85
2021-02-23 00:00:00 7.7 5 Este 8 Sudeste 0 981.6 -- 83
2021-02-22 23:00:00 8.9 3 Nordeste 9 Sur 0 980.9 -- 77
2021-02-22 22:00:00 8.8 6 Nordeste 16 Sudoeste 0 980.1 -- 79
2021-02-22 21:00:00 9.5 8 Este 11 Sudeste 0 979.2 -- 73
2021-02-22 20:00:00 12 0 Calma 6 Oeste 0 978.7 -- 60
2021-02-22 19:00:00 12.9 8 Oeste 23 Sudoeste 0 978.1 -- 58
2021-02-22 18:00:00 14.8 13 Sudoeste 22 Sudoeste 0 977.4 -- 53
2021-02-22 17:00:00 13.6 13 Oeste 19 Oeste 0 977.1 -- 58
2021-02-22 16:00:00 13 14 Oeste 22 Oeste 0 976.8 -- 58
2021-02-22 15:00:00 13.9 19 Sudoeste 32 Sudoeste 0 976.8 -- 52
2021-02-22 14:00:00 12.9 13 Oeste 21 Sudoeste 0 976.9 -- 59
2021-02-22 13:00:00 12.3 6 Sudoeste 14 Sudoeste 0 977.3 -- 69
2021-02-22 12:00:00 8.7 2 Nordeste 9 Nordeste 0 977.2 -- 94
2021-02-22 11:00:00 4.9 7 Este 12 Este 0 976.7 -- 94
2021-02-22 10:00:00 3.2 8 Este 12 Este 0 976.1 -- 94
2021-02-22 09:00:00 2.1 7 Este 10 Este 0 975.5 -- 94
2021-02-22 08:00:00 3.2 5 Este 8 Este 0 974.6 -- 92
2021-02-22 07:00:00 3.9 3 Nordeste 6 Oeste 0 974.2 1.3 91
2021-02-22 06:00:00 4 5 Oeste 6 Sudoeste 0 973.5 -- 91
2021-02-22 05:00:00 4.4 3 Oeste 6 Sudoeste 0 973.2 -- 91
2021-02-22 04:00:00 4.9 6 Sudoeste 8 Sudoeste 0 972.9 -- 90
2021-02-22 03:00:00 5 4 Sudoeste 13 Sudoeste 0 972.5 -- 88
2021-02-22 02:00:00 5.2 13 Oeste 20 Oeste 0 972.1 -- 88
2021-02-22 01:00:00 5.5 17 Oeste 23 Oeste 0 971.3 -- 87
2021-02-22 00:00:00 6.1 19 Oeste 24 Oeste 0 970.7 -- 85
2021-02-21 23:00:00 6.6 18 Oeste 24 Oeste 0 970 -- 84
2021-02-21 22:00:00 7.4 10 Oeste 25 Sudoeste 0 969.2 3.5 79
2021-02-21 21:00:00 8.7 17 Oeste 31 Sudoeste 0 968.1 -- 72
2021-02-21 20:00:00 9.4 19 Sudoeste 35 Oeste 0 967.1 -- 70
2021-02-21 19:00:00 10.7 13 Oeste 45 Oeste 0 965.7 -- 63
2021-02-21 18:00:00 12.2 27 Oeste 49 Oeste 0 964.4 -- 57
2021-02-21 17:00:00 11.5 -- -- -- -- 0 963.7 -- 62
2021-02-21 16:00:00 10.9 -- -- -- -- 0 963.1 -- 64
2021-02-21 15:00:00 10.4 -- -- -- -- 0 962.6 -- 72
2021-02-21 14:00:00 8.8 -- -- -- -- 0 962.3 -- 81
2021-02-21 13:00:00 8.9 19 Oeste -- -- 0 962.4 -- 82
2021-02-21 12:00:00 8.1 9 Sudeste 13 Sudeste 0.2 961.9 -- 85
2021-02-21 11:00:00 7.8 3 Sudoeste -- -- 2.2 962.5 -- 85
2021-02-21 10:00:00 7.5 12 Oeste -- -- 2.6 962.2 -- 88
2021-02-21 09:00:00 7.8 14 Oeste 21 Oeste 1.6 961.6 -- 91
2021-02-21 08:00:00 8 15 Oeste 42 Oeste 1.4 960.4 -- 91
2021-02-21 07:00:00 9.1 22 Sudoeste -- -- 2.8 960.5 -- 91
2021-02-21 06:00:00 9.8 17 Sudoeste 54 Sudoeste 3.2 958.9 -- 88
2021-02-21 05:00:00 12 29 Sudoeste 90 Sudoeste 0 959.4 -- 74
2021-02-21 04:00:00 14.1 46 Sur 73 Sur 0 959.4 -- 60
2021-02-21 03:00:00 12.8 20 Sur 65 Sur 0.2 959.8 -- 63
2021-02-21 02:00:00 15.1 26 Sur 49 Sur 0 960.1 -- 41
2021-02-21 01:00:00 13.2 10 Este 28 Sudeste 0 960.6 -- 53
2021-02-21 00:00:00 13 14 Este 24 Sudeste 0 961 -- 55
2021-02-20 23:00:00 13.1 12 Este 23 Sudeste 0 961.6 -- 58
2021-02-20 22:00:00 13.2 13 Este 27 Sudeste 0 962 -- 64
2021-02-20 21:00:00 13.7 13 Este 30 Este 0 962.3 -- 62
2021-02-20 20:00:00 14.5 13 Este 26 Sudeste 0 962.5 -- 35
2021-02-20 19:00:00 15.6 13 Sudeste 33 Sudeste 0 963.4 -- 31
2021-02-20 18:00:00 16.2 17 Sur 40 Sur 0 964.3 -- 29
2021-02-20 17:00:00 16.6 18 Sur 41 Sur 0 964.8 -- 30
2021-02-20 16:00:00 16.9 27 Sur 53 Sur 0 965 -- 33
2021-02-20 15:00:00 16.7 25 Sur 48 Sur 0 965.5 -- 44
2021-02-20 14:00:00 16.2 23 Sur 44 Sur 0 966.5 -- 43
2021-02-20 13:00:00 16.1 13 Sur 32 Sur 0 967.3 -- 46
2021-02-20 12:00:00 14.5 12 Sur 35 Sudeste 0 967.9 -- 59
2021-02-20 11:00:00 13.5 14 Sudeste 34 Sur 0 968.5 -- 67
2021-02-20 10:00:00 12.8 18 Sur 32 Sur 0 969.2 -- 69
2021-02-20 09:00:00 11.3 14 Sur 33 Sur 0 969.5 0.9 75
2021-02-20 08:00:00 11.5 12 Sur 37 Sur 0 968.6 -- 71
2021-02-20 07:00:00 11.2 9 Sudeste 26 Sudeste 0 967.8 -- 73
2021-02-20 06:00:00 11.1 13 Sur 25 Sur 0 968.6 -- 75
2021-02-20 05:00:00 10.8 5 Norte 12 Nordeste 0 968.5 -- 76
2021-02-20 04:00:00 11.1 8 Sur 20 Sur 0 969.4 -1.2 74
2021-02-20 03:00:00 11.5 8 Sur 24 Sudeste 0 969.6 -- 75
2021-02-20 02:00:00 11.8 7 Sur 21 Sur 0 970.3 -- 76
2021-02-20 01:00:00 11.6 6 Sudeste 22 Sur 0 970.6 -- 78
2021-02-20 00:00:00 11.5 4 Este 14 Sudeste 0 971.1 -- 78
2021-02-19 23:00:00 11.7 2 Noroeste 21 Sudeste 0 971.6 -0.5 71
2021-02-19 22:00:00 11.5 4 Sudeste 22 Sudeste 0 971.6 -- 72
2021-02-19 21:00:00 12.2 9 Sur 18 Sur 0 972 -- 71
2021-02-19 20:00:00 12.4 7 Sudeste 14 Sur 0 972.1 -- 70
2021-02-19 19:00:00 13.4 9 Sur 19 Sur 0 972.2 -- 68
2021-02-19 18:00:00 14.1 14 Sudoeste 31 Sudoeste 0 972.6 -- 67
2021-02-19 17:00:00 15.2 22 Sudoeste 36 Sudoeste 0 972.6 -0.7 62
2021-02-19 16:00:00 16.5 23 Sudoeste 34 Sudoeste 0 972.8 -- 60
2021-02-19 15:00:00 17.4 23 Sudoeste 36 Sudoeste 0 972.9 -- 52
2021-02-19 14:00:00 17.1 16 Sudoeste 26 Sur 0 973.3 -- 55
2021-02-19 13:00:00 15.7 4 Sudoeste 13 Oeste 0 973.7 -- 62
2021-02-19 12:00:00 12.5 4 Oeste 8 Oeste 0 974.3 -- 76
2021-02-19 11:00:00 9.2 3 Norte 6 Nordeste 0 974.5 -- 91
2021-02-19 10:00:00 6.1 2 Sur 7 Sudoeste 0 974.8 -- 94
2021-02-19 09:00:00 3.9 3 Sur 7 Sudeste 0 974.5 -- 93
2021-02-19 08:00:00 4.1 4 Sudoeste 9 Sudeste 0 974.3 -- 93
2021-02-19 07:00:00 5.4 4 Sudoeste 6 Sudoeste 0 974.2 -- 92
2021-02-19 06:00:00 6 2 Oeste 6 Sudoeste 0 974 -- 92
2021-02-19 05:00:00 6 4 Sudoeste 6 Sudoeste 0 973.9 -- 91
2021-02-19 04:00:00 6.9 4 Sudoeste 8 Sudeste 0 974.2 -- 90
2021-02-19 03:00:00 7.2 5 Sudeste 7 Sudeste 0 974.3 -- 88
2021-02-19 02:00:00 8.4 4 Sudoeste 5 Sudoeste 0 974.7 -- 85
2021-02-19 01:00:00 9.6 0 Calma 9 Sudoeste 0 974.9 -- 83
2021-02-19 00:00:00 10.7 5 Oeste 8 Oeste 0 975.2 -- 82
2021-02-18 23:00:00 11.9 6 Oeste 8 Oeste 0 975.4 -- 78
2021-02-18 22:00:00 13.1 5 Noroeste 7 Sudoeste 0 975.1 -- 67
2021-02-18 21:00:00 13.8 5 Sudoeste 9 Sudoeste 0 975 -- 57
2021-02-18 20:00:00 14.6 6 Sudoeste 11 Oeste 0 974.6 -- 50
2021-02-18 19:00:00 15.8 9 Oeste 19 Oeste 0 974 -- 46
2021-02-18 18:00:00 18 13 Sudoeste 24 Sudoeste 0 973.6 -- 45
2021-02-18 17:00:00 19.1 13 Sudoeste 23 Sudoeste 0 973.6 -- 36
2021-02-18 16:00:00 19.3 13 Sudoeste 26 Sudoeste 0 973.5 -- 35
2021-02-18 15:00:00 18.9 15 Sudoeste 24 Sudoeste 0 974 -- 36
2021-02-18 14:00:00 18.1 11 Sudoeste 20 Sudoeste 0 974.5 -- 41
2021-02-18 13:00:00 16.7 5 Sudoeste 11 Sudoeste 0 975.2 -- 53
2021-02-18 12:00:00 13.6 3 Este 7 Este 0 975.5 -- 75
2021-02-18 11:00:00 9.7 4 Este 8 Este 0 975.5 -- 85
2021-02-18 10:00:00 6.5 5 Este 11 Este 0 975.3 -- 92
2021-02-18 09:00:00 5 6 Este 12 Este 0 974.9 -- 93
2021-02-18 08:00:00 5.2 3 Sudoeste 9 Este 0 974.2 -- 92
2021-02-18 07:00:00 5.7 7 Este 11 Este 0 973.8 -- 92
2021-02-18 06:00:00 5.8 7 Este 8 Este 0 973.9 -- 90
2021-02-18 05:00:00 6.4 4 Sudeste 8 Sudeste 0 974 -- 90
2021-02-18 04:00:00 7.2 4 Sur 7 Sudeste 0 974.3 -- 90
2021-02-18 03:00:00 7.5 4 Este 5 Este 0 974.4 -- 87
2021-02-18 02:00:00 8.3 2 Este 6 Este 0 974.8 -- 84
2021-02-18 01:00:00 9.2 3 Este 4 Este 0 975 -- 85
2021-02-18 00:00:00 10.5 0 Calma 6 Nordeste 0 975.3 -- 80
2021-02-17 23:00:00 11.5 4 Nordeste 5 Nordeste 0 975.5 -- 76
2021-02-17 22:00:00 13.7 4 Oeste 6 Noroeste 0 975.5 -- 67
2021-02-17 21:00:00 14 5 Sudoeste 17 Oeste 0 975.5 -- 67
2021-02-17 20:00:00 14.9 11 Oeste 19 Oeste 0 975.2 -- 63
2021-02-17 19:00:00 16.5 11 Oeste 16 Oeste 0 974.9 -- 55
2021-02-17 18:00:00 19.6 13 Sudoeste 24 Sudoeste 0 974.8 -- 50
2021-02-17 17:00:00 20.7 17 Sudoeste 24 Oeste 0 975.1 -- 43
2021-02-17 16:00:00 20.9 12 Sudoeste 21 Sudoeste 0 975.3 -- 42
2021-02-17 15:00:00 20.1 9 Sudoeste 15 Sudoeste 0 976 -- 45
2021-02-17 14:00:00 19.1 8 Sudoeste 13 Sudoeste 0 977 -- 50
2021-02-17 13:00:00 16.8 4 Sudeste 8 Sudeste 0 977.9 -- 74
2021-02-17 12:00:00 12.6 3 Este 9 Este 0 978.5 -- 87
2021-02-17 11:00:00 8.3 5 Este 9 Nordeste 0 978.8 -- 93
2021-02-17 10:00:00 6.3 4 Este 11 Este 0 979 -- 93
2021-02-17 09:00:00 5.5 5 Este 10 Este 0 978.6 -- 94
2021-02-17 08:00:00 5 3 Sur 9 Sudeste 0 978.6 -- 93
2021-02-17 07:00:00 5.8 5 Sudeste 10 Este 0 978.7 -- 93
2021-02-17 06:00:00 6.2 7 Este 11 Este 0 978.9 -- 93
2021-02-17 05:00:00 6.8 2 Oeste 6 Sudeste 0 979.1 -- 92
2021-02-17 04:00:00 7.6 6 Este 11 Nordeste 0 979.6 -- 92
2021-02-17 03:00:00 7.5 7 Este 9 Este 0 980 -- 91
2021-02-17 02:00:00 9.1 3 Este 10 Este 0 980.4 -- 90
2021-02-17 01:00:00 9.3 8 Este 9 Este 0 980.8 -- 89
2021-02-17 00:00:00 10.3 5 Este 7 Nordeste 0 981.2 -- 87
2021-02-16 23:00:00 11.5 3 Nordeste 6 Nordeste 0 981.2 -- 82
2021-02-16 22:00:00 12.2 0 Calma 6 Sudoeste 0 980.9 -- 78
2021-02-16 21:00:00 13.4 3 Sudoeste 19 Oeste 0 980.7 -- 72
2021-02-16 20:00:00 14.2 9 Oeste 14 Oeste 0 980.4 -- 69
2021-02-16 19:00:00 15.7 10 Oeste 19 Oeste 0 980.1 -- 64
2021-02-16 18:00:00 17.8 13 Oeste 21 Oeste 0 980.1 -- 56
2021-02-16 17:00:00 18.9 16 Sudoeste 22 Oeste 0 980.5 -- 54
2021-02-16 16:00:00 19.2 14 Oeste 24 Sudoeste 0 980.8 -- 51
2021-02-16 15:00:00 19.1 14 Sudoeste 22 Sudoeste 0 981.2 -- 53
2021-02-16 14:00:00 18.3 13 Sudoeste 24 Sudoeste 0 981.7 -- 53
2021-02-16 13:00:00 17.3 10 Sudoeste 15 Oeste 0 982.6 -- 56
2021-02-16 12:00:00 14.8 2 Sudoeste 9 Este 0 982.8 -- 66
2021-02-16 11:00:00 12 5 Noroeste 12 Este 0 982.7 -- 76
2021-02-16 10:00:00 8 8 Este 12 Este 0 982.3 -- 81
2021-02-16 09:00:00 6.7 8 Este 12 Este 0 981.8 -- 83
2021-02-16 08:00:00 4.4 12 Este 13 Este 0 981.4 -- 89
2021-02-16 07:00:00 6.9 5 Sudoeste 9 Sudoeste 0 980.9 -- 81
2021-02-16 06:00:00 7.4 5 Sudoeste 10 Oeste 0 980.8 -- 79
2021-02-16 05:00:00 8.7 5 Este 11 Nordeste 0 980.4 -- 72
2021-02-16 04:00:00 8.7 4 Este 12 Nordeste 0 980.7 -- 74
2021-02-16 03:00:00 8.4 5 Este 13 Sudeste 0 981.3 -- 76
2021-02-16 02:00:00 9.2 5 Este 8 Este 0 981.6 -- 74
2021-02-16 01:00:00 9.7 6 Sudoeste 7 Sudoeste 0 982.1 -- 75
2021-02-16 00:00:00 10.9 6 Sudoeste 13 Nordeste 0 982.2 -- 70
2021-02-15 23:00:00 12.8 10 Nordeste 24 Nordeste 0 981.9 -- 58
2021-02-15 22:00:00 13.4 17 Nordeste 24 Nordeste 0 981.7 -- 58
2021-02-15 21:00:00 13.9 19 Nordeste 25 Este 0 981.5 -- 59
2021-02-15 20:00:00 15 15 Este 31 Este 0 981.5 -- 56
2021-02-15 19:00:00 16 17 Sudeste 26 Este 0 981.3 -- 54
2021-02-15 18:00:00 17.6 18 Sudeste 29 Sudeste 0 981.3 -- 48
2021-02-15 17:00:00 19.4 18 Sudeste 27 Sudeste 0 981.4 -- 39
2021-02-15 16:00:00 20.1 15 Este 24 Sudeste 0 981.6 -- 43
2021-02-15 15:00:00 20.2 12 Sudeste 23 Este 0 982.1 -- 42
2021-02-15 14:00:00 18.6 14 Nordeste 22 Nordeste 0 982.6 -- 50
2021-02-15 13:00:00 16.9 15 Nordeste 24 Este 0 983.5 -- 53
2021-02-15 12:00:00 15 21 Nordeste 31 Nordeste 0 983.9 -- 55
2021-02-15 11:00:00 13.4 22 Nordeste 30 Nordeste 0 984 -- 60
2021-02-15 10:00:00 11.5 20 Nordeste 26 Nordeste 0 983.7 -- 64
2021-02-15 09:00:00 8.8 15 Nordeste 24 Nordeste 0 983.3 -- 70
2021-02-15 08:00:00 8.5 18 Nordeste 26 Nordeste 0 982.7 -- 69
2021-02-15 07:00:00 8.4 14 Nordeste 25 Nordeste 0 982.4 -- 71
2021-02-15 06:00:00 8.7 17 Nordeste 25 Nordeste 0 982.6 -- 72
2021-02-15 05:00:00 8.5 14 Nordeste 23 Nordeste 0 982.5 -- 73
2021-02-15 04:00:00 8.7 13 Este 21 Este 0 983 -- 72
2021-02-15 03:00:00 9.2 9 Este 22 Nordeste 0 983.1 -- 70
2021-02-15 02:00:00 8.6 12 Este 17 Este 0 983.3 -- 76
2021-02-15 01:00:00 9.7 12 Este 16 Este 0 983.2 -- 72
2021-02-15 00:00:00 11.7 5 Este 15 Este 0 983.3 -- 64
2021-02-14 23:00:00 12.7 10 Este 17 Nordeste 0 983.1 -- 60
2021-02-14 22:00:00 14.4 12 Este 16 Este 0 982.9 -- 52
2021-02-14 21:00:00 15.4 10 Nordeste 19 Nordeste 0 982.5 -- 47
2021-02-14 20:00:00 16.9 4 Sudeste 15 Sudeste 0 982.2 -- 42
2021-02-14 19:00:00 18.2 5 Sudeste 18 Nordeste 0 981.8 0.6 48
2021-02-14 18:00:00 19.7 14 Nordeste 21 Nordeste 0 981.3 -0.3 43
2021-02-14 17:00:00 20.3 14 Nordeste 20 Nordeste 0 981.2 -- 42
2021-02-14 16:00:00 20.4 14 Nordeste 22 Nordeste 0 981.2 -- 39
2021-02-14 15:00:00 20.4 12 Nordeste 18 Nordeste 0 981.6 -- 40
2021-02-14 14:00:00 19.3 8 Este 17 Este 0 982 -- 47
2021-02-14 13:00:00 18.1 12 Este 15 Este 0 982.6 -- 52
2021-02-14 12:00:00 16.1 8 Sudeste 13 Sudeste 0 982.8 -- 58
2021-02-14 11:00:00 11.6 3 Sudoeste 13 Este 0 982.4 -- 72
2021-02-14 10:00:00 8.7 9 Este 15 Este 0 981.9 -- 78
2021-02-14 09:00:00 6.5 12 Este 15 Este 0 981.4 -- 78
2021-02-14 08:00:00 5.5 10 Este 14 Este 0 981.2 -- 81
2021-02-14 07:00:00 5.3 5 Sudeste 15 Este 0 980.9 -- 84
2021-02-14 06:00:00 5.4 7 Este 10 Este 0 980.8 -- 79
2021-02-14 05:00:00 6.6 10 Este 16 Este 0 980.7 -- 77
2021-02-14 04:00:00 5.6 10 Este 16 Este 0 981.2 -- 81
2021-02-14 03:00:00 6.7 7 Este 13 Este 0 981.7 -- 77
2021-02-14 02:00:00 7.8 9 Este 15 Este 0 982 -- 75
2021-02-14 01:00:00 8.6 9 Nordeste 16 Nordeste 0 982.1 -- 75
2021-02-14 00:00:00 8.5 11 Este 15 Este 0 982.3 -- 76
2021-02-13 23:00:00 9.5 4 Este 11 Este 0 982.2 -- 72
2021-02-13 22:00:00 10.4 10 Este 14 Este 0 982 -- 73
2021-02-13 21:00:00 12 8 Sudeste 15 Norte 0 982.1 -- 65
2021-02-13 20:00:00 13.6 9 Norte 13 Norte 0 981.6 -- 56
2021-02-13 19:00:00 15.8 9 Sudoeste 15 Sudoeste 0 981.1 -- 55
2021-02-13 18:00:00 18 10 Sur 15 Sur 0 980.9 -- 47
2021-02-13 17:00:00 19 6 Sudoeste 17 Sur 0 980.7 -- 47
2021-02-13 16:00:00 18.4 9 Sur 14 Sudoeste 0 981.1 -- 52
2021-02-13 15:00:00 17.5 5 Sudoeste 12 Sudoeste 0 981.8 -- 58
2021-02-13 14:00:00 15.3 6 Este 13 Sudeste 0 982.3 -- 66
2021-02-13 13:00:00 12.5 4 Este 10 Este 0 982.8 -- 93
2021-02-13 08:00:00 4.2 2 Norte 10 Este 0 981.7 -0.1 94
2021-02-13 07:00:00 4.7 5 Este 10 Este 0 981.8 0 94
2021-02-13 06:00:00 4.7 5 Nordeste 9 Este 0 982.1 0.6 93
2021-02-13 05:00:00 5.2 2 Sur 6 Sudeste 0 981.8 0.4 93
2021-02-13 04:00:00 6.3 3 Oeste 9 Este 0 981.8 0.3 92
2021-02-13 03:00:00 7.1 6 Este 8 Este 0 981.5 -0.1 92
2021-02-13 02:00:00 6.5 6 Este 9 Este 0 981.4 -0.1 92
2021-02-13 01:00:00 7.4 2 Sur 12 Este 0 981.5 0.2 90
2021-02-13 00:00:00 8.7 6 Este 9 Este 0 981.6 0.7 86
2021-02-12 23:00:00 9.6 5 Este 8 Este 0 981.5 1.1 85
2021-02-12 22:00:00 10.5 3 Nordeste 9 Noroeste 0 981.3 1.4 80
2021-02-12 21:00:00 12.2 2 Noroeste 9 Oeste 0 980.9 1.4 73
2021-02-12 20:00:00 12.9 6 Noroeste 11 Oeste 0 980.4 1 70
2021-02-12 19:00:00 14.1 10 Oeste 22 Sudoeste 0 979.9 0.7 65
2021-02-12 18:00:00 15.7 14 Oeste 24 Oeste 0 979.5 -0.2 60
2021-02-12 17:00:00 16.2 18 Oeste 26 Oeste 0 979.4 -0.6 55
2021-02-12 16:00:00 15.6 17 Oeste 31 Oeste 0 979.2 -1.4 55
2021-02-12 15:00:00 15.8 14 Oeste 26 Oeste 0 979.7 -0.8 59
2021-02-12 14:00:00 14.7 15 Oeste 26 Oeste 0 980 -0.2 63
2021-02-12 13:00:00 13.7 15 Oeste 26 Oeste 0 980.6 1.4 67
2021-02-12 12:00:00 12.7 18 Oeste 28 Sudoeste 0 980.5 2 72
2021-02-12 11:00:00 11.7 12 Oeste 25 Oeste 0 980.2 2.3 82
2021-02-12 10:00:00 11 13 Oeste 19 Oeste 0 979.2 2 87
2021-02-12 09:00:00 10.6 10 Sudoeste 20 Oeste 0 978.5 -- 89
2021-02-12 08:00:00 10.6 12 Oeste 25 Oeste 0 977.9 -- 90
2021-02-12 07:00:00 10.3 13 Sudoeste 30 Oeste 0 977.2 -- 91
2021-02-12 06:00:00 11.4 24 Oeste 54 Oeste 0 976.9 -- 89
2021-02-12 05:00:00 12.3 33 Oeste 47 Oeste 0.2 976.1 -- 91
2021-02-12 04:00:00 12.5 21 Sudoeste 29 Sudoeste 0.8 976.1 -- 94
2021-02-12 03:00:00 12.3 21 Sudoeste 34 Sudoeste 0.4 976.1 -- 93
2021-02-12 02:00:00 12.7 23 Sudoeste 34 Sudoeste 0 976.1 -- 91
2021-02-12 01:00:00 12.6 8 Sudoeste 15 Sudoeste 0 976 -- 90
2021-02-12 00:00:00 13.1 10 Sudoeste 25 Sur 0 976 -- 90
2021-02-11 23:00:00 13.1 11 Sudoeste 17 Oeste 0 975.8 -- 90
2021-02-11 22:00:00 13.2 11 Sudoeste 15 Sudoeste 0 975.9 -- 90
2021-02-11 21:00:00 13.4 4 Sudoeste 9 Sur 0 975.7 -- 88
2021-02-11 20:00:00 13.2 3 Este 7 Este 0 975.8 -- 89
2021-02-11 19:00:00 13.4 2 Sur 10 Sudoeste 0 975.5 -- 88
2021-02-11 18:00:00 13.8 6 Sudoeste 9 Sudoeste 0 975.5 -- 86
2021-02-11 17:00:00 13.8 6 Sudoeste 30 Oeste 0 975.5 -- 87
2021-02-11 16:00:00 13.2 24 Sudoeste 43 Sudoeste 0 975.3 -- 88
2021-02-11 15:00:00 15.1 15 Sudoeste 30 Sudoeste 0 975.5 -- 82
2021-02-11 14:00:00 15.2 14 Sudoeste 21 Sudoeste 0 975.9 -- 85
2021-02-11 13:00:00 14.6 10 Sudoeste 18 Sudoeste 0 976.3 -- 86
2021-02-11 12:00:00 13.9 14 Sudoeste 23 Sudoeste 0 976.8 -- 92
2021-02-11 11:00:00 13.7 7 Sudoeste 10 Sudoeste 0.2 976.6 -- 93
2021-02-11 10:00:00 12.6 5 Sudoeste 7 Sudoeste 0 976.5 -- 94
2021-02-11 09:00:00 12.2 3 Oeste 5 Oeste 0 975.8 -- 94
2021-02-11 08:00:00 12 4 Oeste 11 Sudoeste 0 975.6 -- 94
2021-02-11 07:00:00 12 8 Oeste 10 Sudoeste 0 975.6 -- 94
2021-02-11 06:00:00 12 7 Sudoeste 14 Sudoeste 0 975.4 -- 94
2021-02-11 05:00:00 12.3 8 Sudoeste 10 Sudoeste 0 975.3 -- 94
2021-02-11 04:00:00 12.3 9 Sudoeste 24 Sudoeste 0 975.6 -- 94
2021-02-11 03:00:00 12.5 13 Sudoeste 18 Sudoeste 0 975.8 -- 94
2021-02-11 02:00:00 12.7 14 Sudoeste 27 Sudoeste 0 975.9 -- 94
2021-02-11 01:00:00 12.8 21 Sudoeste 35 Sudoeste 0.2 975.6 -- 94
2021-02-11 00:00:00 13 26 Sudoeste 38 Sudoeste 0 975 -- 94
2021-02-10 23:00:00 13.5 17 Sudoeste 31 Sudoeste 0.2 974.6 -- 93
2021-02-10 22:00:00 13.6 20 Sudoeste 36 Sudoeste 0 974.2 -- 93
2021-02-10 21:00:00 13.8 27 Sudoeste 37 Sudoeste 0.2 973.7 -- 93
2021-02-10 20:00:00 13.9 13 Sudoeste 29 Oeste 0.6 973.2 -- 93
2021-02-10 19:00:00 14 19 Oeste 30 Oeste 0.2 972.5 -- 93
2021-02-10 18:00:00 14.2 19 Sudoeste 23 Sudoeste 0 972 -- 93
2021-02-10 17:00:00 14.1 10 Sudoeste 20 Sudoeste 0.2 971.7 -- 93
2021-02-10 16:00:00 14.1 13 Sudoeste 31 Sudoeste 0 971.6 -- 93
2021-02-10 15:00:00 13.6 15 Sudoeste 22 Sudoeste 0 971.6 -- 93
2021-02-10 14:00:00 13 15 Sudoeste 22 Sudoeste 0.2 971.7 -- 93
2021-02-10 13:00:00 12.7 19 Sudoeste 29 Sudoeste 0 971.7 -- 93
2021-02-10 12:00:00 12.5 16 Sudoeste 27 Sudoeste 0.2 971.1 -- 93
2021-02-10 11:00:00 12 16 Sudoeste 25 Oeste 0.4 970.2 -- 93
2021-02-10 10:00:00 11.5 17 Oeste 32 Oeste 0.2 969.3 -- 93
2021-02-10 09:00:00 11.6 19 Oeste 34 Oeste 1.4 968.1 -- 93
2021-02-10 08:00:00 11.8 24 Sudoeste 48 Sudoeste 1.6 966.7 -- 94
2021-02-10 07:00:00 11.6 39 Sudoeste 57 Sudoeste 0.6 966 -- 94
2021-02-10 06:00:00 11.1 24 Sudoeste 50 Sudoeste 2.4 966.1 -- 94
2021-02-10 05:00:00 11.1 36 Sudoeste 49 Sudoeste 2.2 965.7 -- 93
2021-02-10 04:00:00 11.1 38 Sudoeste 53 Sudoeste 0.4 965.6 -- 91
2021-02-10 03:00:00 11.1 35 Sudoeste 55 Sudoeste 0 965.9 -- 87
2021-02-10 02:00:00 10.8 37 Sudoeste 52 Sudoeste 0 966.3 -- 89
2021-02-10 01:00:00 10.7 34 Sudoeste 52 Sudoeste 0 966.2 -- 87
2021-02-10 00:00:00 10.7 37 Sudoeste 55 Sudoeste 0 966 -- 88
2021-02-09 23:00:00 10.7 39 Sudoeste 57 Sudoeste 0 965.8 -- 89
2021-02-09 22:00:00 10.6 44 Oeste 62 Oeste 0.8 965 -- 85
2021-02-09 21:00:00 11.4 32 Sudoeste 51 Sudoeste 0 964.6 -- 89
2021-02-09 20:00:00 11.4 39 Sudoeste 53 Sudoeste 0 964.3 -- 90
2021-02-09 19:00:00 11.1 32 Sudoeste 47 Sudoeste 0 963.5 -- 92
2021-02-09 18:00:00 11.3 31 Sudoeste 56 Sudoeste 0.4 963.5 -- 92
2021-02-09 17:00:00 11.3 39 Sudoeste 61 Sudoeste 1.8 962.8 -- 92
2021-02-09 16:00:00 11.4 45 Sudoeste 68 Oeste 5 962.9 -- 91
2021-02-09 15:00:00 10.8 41 Oeste 71 Sudoeste 3.6 962.9 -- 91
2021-02-09 14:00:00 11.7 50 Sudoeste 68 Sudoeste 0.4 962.8 -- 89
2021-02-09 13:00:00 11.1 41 Sudoeste 67 Sudoeste 2.6 963.2 -- 90
2021-02-09 12:00:00 11.1 44 Sudoeste 78 Sudoeste 1.4 963.8 -- 88
2021-02-09 11:00:00 11.5 52 Sudoeste 77 Sudoeste 0 963.6 -- 82
2021-02-09 10:00:00 10.4 45 Sudoeste 64 Sudoeste 0.6 964.3 -- 90
2021-02-09 09:00:00 11.1 33 Sudoeste 52 Sudoeste 0 964.2 -- 78
2021-02-09 08:00:00 10.7 33 Sudoeste 58 Sudoeste 0 964.2 -- 80
2021-02-09 07:00:00 10.3 23 Sudoeste 37 Sudoeste 0 964.8 -- 82
2021-02-09 06:00:00 10.3 24 Sudoeste 53 Sudoeste 0 965.8 -- 83
2021-02-09 05:00:00 10.6 29 Sudoeste 45 Sudoeste 0 966.5 -- 80
2021-02-09 04:00:00 10.3 25 Sudoeste 37 Sudoeste 0 966.8 -- 84
2021-02-09 03:00:00 10 22 Sudoeste 40 Sudoeste 0 967.2 -- 86
2021-02-09 02:00:00 10 22 Sudoeste 39 Sudoeste 0 967.5 -- 90
2021-02-09 01:00:00 9.6 18 Sudoeste 26 Sudoeste 0.2 968 -- 91
2021-02-09 00:00:00 9.3 13 Sudoeste 22 Sudoeste 0 968.4 -- 89
2021-02-08 23:00:00 8.8 15 Sudoeste 28 Sudoeste 0 968.5 -- 87
2021-02-08 22:00:00 9.4 23 Sudoeste 35 Sudoeste 0 968.1 -- 85
2021-02-08 21:00:00 10.3 26 Sudoeste 45 Sudoeste 0 968 -- 85
2021-02-08 20:00:00 10.5 31 Sudoeste 48 Sudoeste 0 967.2 -- 84
2021-02-08 19:00:00 11.4 27 Sudoeste 40 Sudoeste 0 966.8 -- 79
2021-02-08 18:00:00 11.7 28 Sudoeste 51 Sudoeste 0 965.9 -- 77
2021-02-08 17:00:00 13.4 33 Sudoeste 54 Sudoeste 0 965.1 -- 71
2021-02-08 16:00:00 13.3 31 Oeste 68 Sudoeste 0 964.7 -- 61
2021-02-08 15:00:00 13 54 Sudoeste 71 Sudoeste 0 964.2 -- 62
2021-02-08 14:00:00 12.1 36 Sudoeste 55 Sudoeste 0 965 -- 71
2021-02-08 13:00:00 12 33 Oeste 61 Sudoeste 0 965.4 -- 76
2021-02-08 12:00:00 10.3 32 Sudoeste 54 Sudoeste 0 965.5 -- 87
2021-02-08 11:00:00 10.5 38 Sudoeste 50 Sudoeste -- 965.1 -- 85
2021-02-08 10:00:00 -- -- -- -- -- -- -- -- --
2021-02-08 09:00:00 9.3 31 Sudoeste 62 Sudoeste 0 964.5 -- 89
2021-02-08 08:00:00 9.4 33 Oeste 53 Sudoeste 0 963.7 -- 87
2021-02-08 07:00:00 9.3 26 Sudoeste 45 Sudoeste 0 963.5 -- 89
2021-02-08 06:00:00 9.4 33 Sudoeste 56 Oeste 0 963.2 -- 87
2021-02-08 05:00:00 9.5 37 Oeste 75 Oeste 0.2 963 -- 88
2021-02-08 04:00:00 11.3 45 Sudoeste 64 Sudoeste 4.8 961.4 -- 93
2021-02-08 03:00:00 10.8 28 Sudoeste 54 Sudoeste 4.2 962 -- 93
2021-02-08 02:00:00 10.3 32 Sudoeste 44 Sudoeste 1.6 963.3 -- 92
2021-02-08 01:00:00 10.1 28 Sudoeste 41 Sudoeste 0 964.6 -- 90
2021-02-08 00:00:00 9.2 22 Sudoeste 34 Sudoeste 0.4 965.6 -- 92
2021-02-07 23:00:00 9 21 Sudoeste 38 Sudoeste 0 966.7 -- 91
2021-02-07 22:00:00 9.5 23 Sudoeste 35 Sudoeste 0 967.4 -- 86
2021-02-07 21:00:00 9 15 Sudoeste 28 Sudoeste 0 967.8 -- 90
2021-02-07 20:00:00 8.8 18 Sudoeste 36 Sudoeste 0 968.1 -- 89
2021-02-07 19:00:00 9.1 22 Sudoeste 31 Sudoeste 0 968.2 -- 81
2021-02-07 18:00:00 9.4 26 Sudoeste 38 Sudoeste 0 968.1 -- 77
2021-02-07 17:00:00 9.7 27 Sudoeste 44 Sudoeste 0 968.2 -- 73
2021-02-07 16:00:00 9.9 35 Sudoeste 48 Oeste 0 967.8 -- 68
2021-02-07 15:00:00 9.4 29 Sudoeste 42 Oeste 0 968 -- 70
2021-02-07 14:00:00 9 30 Oeste 47 Oeste 0 968.3 -- 70
2021-02-07 13:00:00 8.8 28 Oeste 46 Oeste 0 968.6 -- 70
2021-02-07 12:00:00 8.3 23 Oeste 39 Oeste 0 968.6 -- 73
2021-02-07 11:00:00 7.6 22 Oeste 31 Oeste 0 968.1 -- 75
2021-02-07 10:00:00 -- -- -- -- -- -- -- -- --
2021-02-07 09:00:00 -- -- -- -- -- -- -- -- --
2021-02-07 08:00:00 -- -- -- -- -- -- -- -- --
2021-02-07 07:00:00 -- -- -- -- -- -- -- -- --
2021-02-07 06:00:00 -- -- -- -- -- -- -- -- --
2021-02-07 05:00:00 8 22 Oeste 35 Oeste 0 964.8 -- 88
2021-02-07 04:00:00 8.3 16 Oeste 23 Oeste 0 964.6 -- 91
2021-02-07 03:00:00 8.6 9 Sudoeste 14 Sudoeste 0 964.3 -- 91
2021-02-07 02:00:00 8.7 7 Sudoeste 14 Sudoeste 0 964.2 -- 91
2021-02-07 01:00:00 8.7 9 Sudoeste 15 Oeste 0 963.9 -- 91
2021-02-07 00:00:00 8.7 11 Oeste 23 Oeste 0 963.5 -- 91
2021-02-06 23:00:00 8.6 15 Oeste 21 Oeste 0 963.2 -- 92
2021-02-06 22:00:00 8.5 10 Oeste 18 Oeste 0.2 962.5 -- 92
2021-02-06 21:00:00 8.4 10 Oeste 23 Oeste 0 962 -- 92
2021-02-06 20:00:00 8.4 16 Oeste 25 Oeste 0.2 961.3 -- 92
2021-02-06 19:00:00 8.4 20 Oeste 28 Oeste 0.6 960.5 -- 91
2021-02-06 18:00:00 8.8 15 Sudoeste 28 Sudoeste 1.2 960.3 -- 91
2021-02-06 17:00:00 8.7 18 Oeste 28 Oeste 0.6 959.9 -- 90
2021-02-06 16:00:00 9.5 21 Oeste 33 Oeste 0.2 959.3 -- 87
2021-02-06 15:00:00 10 16 Oeste 31 Sudoeste 0 959.2 -- 86
2021-02-06 14:00:00 10.2 20 Sudoeste 32 Oeste 0.2 959.4 -- 86
2021-02-06 13:00:00 9.9 19 Oeste 29 Oeste 0 959.8 -- 86
2021-02-06 12:00:00 9.6 22 Oeste 30 Oeste 0.2 959.7 -- 92
2021-02-06 11:00:00 9.4 17 Sudoeste 22 Sudoeste 0 959.2 -- 92
2021-02-06 10:00:00 9.2 10 Sudoeste 17 Sudoeste 0 958.9 -- 93
2021-02-06 09:00:00 8.6 14 Sudoeste 25 Oeste 0 958.3 -- 94
2021-02-06 08:00:00 8.3 21 Sudoeste 32 Sudoeste 0.2 957.9 -- 94
2021-02-06 07:00:00 8.5 17 Sudoeste 26 Sudoeste 0.2 957.4 -- 94
2021-02-06 06:00:00 8.4 16 Sudoeste 22 Sudoeste 0 957.3 -- 94
2021-02-06 05:00:00 8.3 15 Sudoeste 21 Sudoeste 0 957.1 -- 93
2021-02-06 04:00:00 8.3 15 Sudoeste 31 Sudoeste 0 957.2 -- 93
2021-02-06 03:00:00 8.5 15 Sudoeste 24 Sudoeste 0 957.2 -- 93
2021-02-06 02:00:00 8.7 18 Sudoeste 29 Sudoeste 0 957.1 -- 93
2021-02-06 01:00:00 9.1 15 Sudoeste 27 Sudoeste 0 957.3 -- 92
2021-02-06 00:00:00 9.3 13 Sudoeste 19 Sudoeste 0 957.3 -- 92
2021-02-05 23:00:00 9.2 7 Sudoeste 10 Sudoeste 0 957.2 -- 92
2021-02-05 22:00:00 9.1 4 Sudoeste 23 Sudoeste 2 957.2 -- 91
2021-02-05 21:00:00 9.7 17 Sudoeste 23 Oeste 0 956.9 -- 89
2021-02-05 20:00:00 10.2 9 Sudoeste 13 Sudeste 1.2 956.8 -- 89
2021-02-05 19:00:00 10.7 8 Sur 30 Sudeste 1.2 956.6 -- 88
2021-02-05 18:00:00 11.3 18 Este 28 Este 0.2 956.3 -- 83
2021-02-05 17:00:00 11.1 18 Este 27 Este 0.8 956.4 -- 86
2021-02-05 16:00:00 11 21 Este 34 Nordeste 0.4 956.6 -- 89
2021-02-05 15:00:00 10.6 16 Nordeste 37 Nordeste 0.2 957.4 -- 90
2021-02-05 14:00:00 10.3 29 Nordeste 41 Nordeste 0.4 957.7 -- 90
2021-02-05 13:00:00 10 16 Nordeste 26 Norte 2.8 959.1 -- 90
2021-02-05 12:00:00 10 8 Sudoeste 23 Sudoeste 3.6 960.6 -- 92
2021-02-05 11:00:00 10.3 15 Sudoeste 26 Oeste 2 960.4 -- 90
2021-02-05 10:00:00 10.5 4 Sur 14 Sur 2.2 960.7 -- 91
2021-02-05 09:00:00 10.2 12 Este 17 Este 2.2 960.8 -- 93
2021-02-05 08:00:00 10 10 Sur 27 Este 0.2 960.6 -- 94
2021-02-05 07:00:00 9.8 13 Este 17 Este 0.6 959.7 -- 94
2021-02-05 06:00:00 9.7 7 Oeste 20 Sudoeste 2.6 960.4 -- 94
2021-02-05 05:00:00 9.7 14 Este 18 Este 0.2 959.6 -- 93
2021-02-05 04:00:00 9.8 6 Noroeste 25 Este 0.4 960.9 -- 93
2021-02-05 03:00:00 9.8 13 Este 26 Este 0.2 960.5 -- 91
2021-02-05 02:00:00 10.1 17 Este 22 Nordeste 0.2 961.3 -- 90
2021-02-05 01:00:00 10.3 13 Nordeste 28 Este 0 962.8 -- 89
2021-02-05 00:00:00 10.2 17 Este 23 Nordeste 0 962.2 -- 90
2021-02-04 23:00:00 10.5 7 Nordeste 18 Este 0 962.5 -- 88
2021-02-04 22:00:00 10.6 16 Nordeste 24 Nordeste 0 962.8 -- 87
2021-02-04 21:00:00 10.5 12 Nordeste 24 Nordeste 0 963 -- 90
2021-02-04 20:00:00 10.4 20 Nordeste 24 Este 0.4 963.2 -- 93
2021-02-04 19:00:00 10.4 17 Nordeste 21 Nordeste 0.4 963.5 -- 91
2021-02-04 18:00:00 10.8 16 Este 21 Este 0 963.5 -- 90
2021-02-04 17:00:00 10.6 18 Este 28 Este 2.2 963.4 -- 92
2021-02-04 16:00:00 10.5 6 Este 15 Norte 0.8 964.4 -- 91
2021-02-04 15:00:00 10.8 5 Noroeste 20 Noroeste 2.2 964.1 -- 90
2021-02-04 14:00:00 11 6 Este 14 Sudeste 1.4 964.6 -- 92
2021-02-04 13:00:00 11.3 5 Sur 32 Oeste 5 965 -- 91
2021-02-04 12:00:00 12.5 27 Sudoeste 37 Sudoeste 1 965.9 -- 83
2021-02-04 11:00:00 12.6 9 Este 25 Este 0 964.7 -- 86
2021-02-04 10:00:00 12.6 17 Sudeste 24 Sudeste 0 964.6 -- 85
2021-02-04 09:00:00 11.3 8 Este 22 Nordeste 0 964.7 -- 91
2021-02-04 08:00:00 10.6 14 Este 22 Este 0 964.9 -- 94
2021-02-04 07:00:00 10.2 13 Este 17 Este 0.4 965.4 -- 94
2021-02-04 06:00:00 10.2 7 Nordeste 12 Nordeste 1 965.9 -- 94
2021-02-04 05:00:00 10.2 10 Este 12 Este 0.4 966.6 -- 94
2021-02-04 04:00:00 10.4 8 Este 9 Este 0 967.4 -- 94
2021-02-04 03:00:00 10.5 4 Este 6 Este 0.2 968.1 -- 93
2021-02-04 02:00:00 10.6 0 Calma 4 Nordeste 0 968.7 -- 93
2021-02-04 01:00:00 10.6 0 Calma 9 Oeste 0.6 969.3 -- 93
2021-02-04 00:00:00 10.6 8 Oeste 22 Sudoeste 0.6 969.7 -- 93
2021-02-03 23:00:00 11.5 15 Sudoeste 20 Sudoeste 0.6 969.6 -- 92
2021-02-03 22:00:00 12 9 Sudoeste 25 Oeste 1 969.7 -- 91
2021-02-03 21:00:00 13.1 13 Sudoeste 20 Sudoeste 0 969.6 -- 81
2021-02-03 20:00:00 13.3 13 Sudoeste 21 Sudoeste 0 969.5 -- 80
2021-02-03 19:00:00 13.7 13 Sudoeste 29 Sur 0 969.5 -- 78
2021-02-03 18:00:00 14 18 Sur 30 Sudoeste 0 969.4 -- 75
2021-02-03 17:00:00 14.6 13 Sur 30 Sur 0 969.6 -- 73
2021-02-03 16:00:00 14.4 18 Sur 33 Sur 0 970.1 -- 75
2021-02-03 15:00:00 14.2 19 Sur 30 Sur 0 970.4 -- 74
2021-02-03 14:00:00 14.3 18 Sudoeste 31 Sur 0 970.9 -- 73
2021-02-03 13:00:00 13.4 16 Sur 30 Sur 0 971.8 -- 76
2021-02-03 12:00:00 12.5 13 Sudoeste 25 Sur 0 972.6 -- 82
2021-02-03 11:00:00 11.8 4 Sudoeste 11 Sudoeste 0 972.7 -- 85
2021-02-03 10:00:00 11.5 10 Sudoeste 18 Sudoeste 0 972.5 -- 83
2021-02-03 09:00:00 11.3 6 Sudoeste 21 Sudoeste 0 972.1 -- 81
2021-02-03 08:00:00 11.3 3 Sudoeste 10 Sudoeste 0 971.9 -- 78
2021-02-03 07:00:00 11.4 3 Sudoeste 9 Sudoeste 0 971.8 -- 77
2021-02-03 06:00:00 11.4 3 Oeste 9 Oeste 0 971.7 -- 77
2021-02-03 05:00:00 11.4 4 Sudoeste 12 Sudoeste 0 971.9 -- 77
2021-02-03 04:00:00 11.4 5 Sudoeste 14 Sudoeste 0 972.5 -- 80
2021-02-03 03:00:00 11.4 6 Sudoeste 14 Sudoeste 0 972.9 -- 80
2021-02-03 02:00:00 11.4 12 Sudoeste 23 Sudoeste 0 973.4 -- 81
2021-02-03 01:00:00 11.5 14 Sudoeste 21 Sudoeste 0 973.7 -- 83
2021-02-03 00:00:00 11.7 15 Sudoeste 25 Oeste 0 973.8 -- 82
2021-02-02 23:00:00 11.9 16 Sudoeste 22 Sudoeste 0 973.7 -- 83
2021-02-02 22:00:00 12.1 7 Sudoeste 9 Sudoeste 0 973.7 -- 85
2021-02-02 21:00:00 12.4 8 Sudoeste 17 Oeste 0 973.6 -- 82
2021-02-02 20:00:00 12.9 11 Oeste 16 Oeste 0 973.7 -- 80
2021-02-02 19:00:00 13.1 11 Sudoeste 22 Sudoeste 0 973.4 -- 79
2021-02-02 18:00:00 13.7 17 Sudoeste 23 Sudoeste 0 973.1 -- 79
2021-02-02 17:00:00 14 17 Sudoeste 32 Sudoeste 0 973.4 -- 77
2021-02-02 16:00:00 14.2 22 Sudoeste 28 Sudoeste 0 973.8 -- 76
2021-02-02 15:00:00 14.2 15 Sudoeste 24 Sudoeste 0 973.8 -- 76
2021-02-02 14:00:00 13.7 19 Sudoeste 29 Sudoeste 0 974.7 -- 77
2021-02-02 13:00:00 13.6 14 Sudoeste 27 Sudoeste 0 975.8 -- 82
2021-02-02 12:00:00 13.3 16 Sudoeste 20 Sudoeste 0 976.5 -- 83
2021-02-02 11:00:00 12.5 9 Sudoeste 13 Sudoeste 0 976.6 -- 92
2021-02-02 10:00:00 11.4 9 Sudoeste 28 Sudoeste 0 976.2 -- 93
2021-02-02 09:00:00 11.5 13 Sudoeste 19 Sudoeste 0.2 975.8 -- 94
2021-02-02 08:00:00 11.7 11 Sudoeste 14 Sudoeste 0 975.9 -- 94
2021-02-02 07:00:00 11.8 9 Sudoeste 11 Sudoeste 0.4 975.8 -- 93
2021-02-02 06:00:00 11.8 4 Sudoeste 9 Sur 0 976 -- 93
2021-02-02 05:00:00 11.8 3 Sudoeste 6 Sudoeste 0.2 976 -- 93
2021-02-02 04:00:00 11.7 5 Sudoeste 11 Sudoeste 0.2 976.6 -- 93
2021-02-02 03:00:00 11.4 8 Sudoeste 11 Sudoeste 0 976.9 -- 92
2021-02-02 02:00:00 11.2 7 Sudoeste 9 Sudoeste 0 977.1 -- 91
2021-02-02 01:00:00 11.3 5 Sudoeste 7 Sudoeste 0 977.2 -- 89
2021-02-02 00:00:00 11.6 4 Sudoeste 7 Oeste 0 977.1 -- 88
2021-02-01 23:00:00 11.5 3 Sudoeste 11 Oeste 0 977.3 -- 88
2021-02-01 22:00:00 11.1 8 Sudoeste 12 Sudoeste 0 977.3 -- 87
2021-02-01 21:00:00 11.4 6 Oeste 8 Oeste 0 976.9 -- 86
2021-02-01 20:00:00 12.2 4 Oeste 14 Sudoeste 0 976.8 -- 83
2021-02-01 19:00:00 13.1 9 Sudoeste 14 Sudoeste 0 976.7 -- 80
2021-02-01 18:00:00 13.6 13 Sudoeste 29 Sudoeste 0 976.6 -- 75
2021-02-01 17:00:00 13.6 26 Sudoeste 36 Sudoeste 0 976.8 -- 71
2021-02-01 16:00:00 14.1 20 Oeste 32 Sudoeste 0 976.7 -- 73
2021-02-01 15:00:00 14.4 26 Sudoeste 35 Sudoeste 0 976.6 -- 71
2021-02-01 14:00:00 13.8 23 Sudoeste 35 Sudoeste 0 977.1 -- 75
2021-02-01 13:00:00 13.3 21 Oeste 36 Sudoeste 0 977.9 -- 72
2021-02-01 12:00:00 12.7 19 Oeste 30 Sudoeste 0 977.9 -- 78
2021-02-01 11:00:00 12 24 Oeste 32 Sudoeste 0 977.5 -- 81
2021-02-01 10:00:00 11.7 18 Sudoeste 26 Sudoeste 0 977.1 -- 88
2021-02-01 09:00:00 11.5 19 Sudoeste 33 Oeste 0 976.3 -- 84
2021-02-01 08:00:00 11.4 18 Sudoeste 29 Oeste 0 975.9 -- 89
2021-02-01 07:00:00 11.5 21 Oeste 35 Oeste 0 975.4 -- 88
2021-02-01 06:00:00 11.8 21 Oeste 36 Oeste 0 975.4 -- 87
2021-02-01 05:00:00 12.5 20 Sudoeste 41 Sudoeste 0 975.1 -- 91
2021-02-01 04:00:00 12.2 22 Sudoeste 38 Sudoeste 0 975.2 -- 91
2021-02-01 03:00:00 12.5 27 Sudoeste 45 Sudoeste 0 975 -- 90
2021-02-01 02:00:00 13.4 24 Oeste 35 Sudoeste 0 975.9 -- 93
2021-02-01 01:00:00 13.5 20 Sudoeste 33 Sudoeste 0.6 976 -- 94
2021-02-01 00:00:00 13.4 26 Sudoeste 35 Oeste 0.4 975.4 -- 94
2021-01-31 23:00:00 13.3 20 Sudoeste 32 Sudoeste 0.2 975.2 -- 94
2021-01-31 22:00:00 13.2 24 Sudoeste 38 Sudoeste 0.2 975.1 -- 94
2021-01-31 21:00:00 13.1 28 Sudoeste 41 Sudoeste 0.4 974.7 -- 94
2021-01-31 20:00:00 13 28 Sudoeste 40 Sudoeste 0.4 974.6 -- 94
2021-01-31 19:00:00 13.2 31 Sudoeste 43 Sudoeste 0.2 974.6 -- 93
2021-01-31 18:00:00 13.5 23 Sudoeste 42 Sudoeste 0 974.7 -- 93
2021-01-31 17:00:00 13.3 28 Sudoeste 41 Sudoeste 0.6 974.8 -- 93
2021-01-31 16:00:00 13.2 30 Sudoeste 47 Sudoeste 0 975.1 -- 93
2021-01-31 15:00:00 12.6 33 Sudoeste 48 Sudoeste 0.4 975.3 -- 93
2021-01-31 14:00:00 12.2 28 Sudoeste 45 Sudoeste 0.2 976.2 -- 93
2021-01-31 13:00:00 12.1 31 Sudoeste 43 Oeste 0 976.8 -- 91
2021-01-31 12:00:00 11.9 25 Sudoeste 39 Sudoeste 0 977.2 -- 88
2021-01-31 11:00:00 11.6 23 Sudoeste 40 Sudoeste 0 977.2 -- 88
2021-01-31 10:00:00 10.8 20 Sudoeste 31 Sudoeste 0 976.9 -- 92
2021-01-31 09:00:00 10.1 22 Sudoeste 32 Sudoeste 0 976.7 -- 92
2021-01-31 08:00:00 9.9 22 Sudoeste 39 Sudoeste 0 976.4 -- 91
2021-01-31 07:00:00 9.8 18 Sudoeste 27 Sudoeste 0 976.1 -- 91
2021-01-31 06:00:00 9.5 14 Sudoeste 22 Sur 0 976.2 -- 90
2021-01-31 05:00:00 9.2 14 Sudoeste 23 Sudoeste 0 976.2 -- 90
2021-01-31 04:00:00 9.5 15 Sudoeste 36 Oeste 0 976.1 -- 87
2021-01-31 03:00:00 9.8 22 Sudoeste 37 Sudoeste 0 976.1 -- 86
2021-01-31 02:00:00 9.6 23 Sudoeste 37 Sudoeste 0 976.5 -- 86
2021-01-31 01:00:00 9.9 24 Oeste 42 Oeste 0 976.7 -- 84
2021-01-31 00:00:00 9.6 27 Sudoeste 40 Sudoeste 0 976 -- 85
2021-01-30 23:00:00 9.9 22 Sudoeste 37 Sudoeste 0 976.1 -- 81
2021-01-30 22:00:00 9.5 19 Sudoeste 27 Sudoeste 0 975.5 -- 78
2021-01-30 21:00:00 10.1 19 Sudoeste 46 Oeste 0 975.8 -- 72
2021-01-30 20:00:00 11.1 27 Sudoeste 45 Sudoeste 0 975.3 -- 68
2021-01-30 19:00:00 11.6 23 Sudoeste 51 Oeste 0 974.9 -- 64
2021-01-30 18:00:00 13 34 Sudoeste 68 Sudoeste 0 974.2 -- 57
2021-01-30 17:00:00 14.6 28 Oeste 60 Sudoeste 0 973.9 -- 61
2021-01-30 16:00:00 14.7 31 Oeste 64 Sudoeste 0 974.3 -- 59
2021-01-30 15:00:00 14 31 Oeste 53 Sudoeste 0 974.3 -- 56
2021-01-30 14:00:00 14.2 38 Oeste 58 Sudoeste 0 975.1 -- 59
2021-01-30 13:00:00 13.3 33 Oeste 53 Sudoeste 0 975.9 -- 66
2021-01-30 12:00:00 12.7 30 Oeste 45 Oeste 0 976.4 -- 77
2021-01-30 11:00:00 12 23 Oeste 42 Sudoeste 0 975.8 -- 84
2021-01-30 10:00:00 11.7 24 Sudoeste 39 Sudoeste 0 975.2 -- 89
2021-01-30 09:00:00 11.3 23 Sudoeste 46 Sudoeste 0.2 975 -- 92
2021-01-30 08:00:00 11.8 32 Sudoeste 48 Sudoeste 0.2 974.4 -- 94
2021-01-30 07:00:00 11.6 36 Sudoeste 46 Sudoeste 0.2 974.3 -- 94
2021-01-30 06:00:00 11.3 26 Sudoeste 41 Sudoeste 0 974.9 -- 94
2021-01-30 05:00:00 11 25 Sudoeste 37 Sudoeste 0.2 975.1 -- 94
2021-01-30 04:00:00 10.9 24 Sudoeste 46 Sudoeste 0 975.7 -- 93
2021-01-30 03:00:00 11.4 29 Sudoeste 47 Sudoeste 0 976.2 -- 92
2021-01-30 02:00:00 11.9 17 Sudoeste 22 Oeste 0 976.1 -- 93
2021-01-30 01:00:00 11.8 12 Sudoeste 21 Sudoeste 0 976.3 -- 92
2021-01-30 00:00:00 11.9 14 Sudoeste 22 Sudoeste 0 977.6 -- 91